createdAt,value
2023-06-02T00:01:33.631Z,101286.56
2023-06-02T00:04:03.382Z,101284.50
2023-06-02T00:06:33.766Z,101281.47
2023-06-02T00:09:01.819Z,101278.84
2023-06-02T00:11:29.332Z,101287.94
2023-06-02T00:13:56.209Z,101287.28
2023-06-02T00:16:23.098Z,101294.16
2023-06-02T00:18:50.011Z,101269.16
2023-06-02T00:21:20.160Z,101249.69
2023-06-02T00:23:47.576Z,101255.47
2023-06-02T00:26:14.392Z,101274.97
2023-06-02T00:28:41.196Z,101282.44
2023-06-02T00:31:07.951Z,101258.53
2023-06-02T00:33:35.417Z,101285.88
2023-06-02T00:36:02.465Z,101266.38
2023-06-02T00:38:29.330Z,101287.94
2023-06-02T00:40:56.234Z,101285.25
2023-06-02T00:43:23.048Z,101274.63
2023-06-02T00:45:49.830Z,101278.31
2023-06-02T00:48:16.593Z,101279.97
2023-06-02T00:50:43.367Z,101277.63
2023-06-02T00:53:11.214Z,101262.56
2023-06-02T00:55:38.023Z,101274.84
2023-06-02T00:58:05.286Z,101248.34
2023-06-02T01:00:38.247Z,101277.06
2023-06-02T01:03:05.579Z,101260.06
2023-06-02T01:05:32.566Z,101272.53
2023-06-02T01:08:00.772Z,101266.28
2023-06-02T01:10:27.861Z,101269.16
2023-06-02T01:12:55.013Z,101261.84
2023-06-02T01:15:22.171Z,101278.72
2023-06-02T01:17:51.976Z,101258.94
2023-06-02T01:20:22.738Z,101267.34
2023-06-02T01:22:57.833Z,101233.34
2023-06-02T01:25:26.990Z,101261.19
2023-06-02T01:27:53.801Z,101267.09
2023-06-02T01:30:20.616Z,101267.09
2023-06-02T01:32:56.040Z,101268.75
2023-06-02T01:35:23.011Z,101284.50
2023-06-02T01:37:55.364Z,101259.38
2023-06-02T01:40:23.214Z,101279.81
2023-06-02T01:42:49.932Z,101268.47
2023-06-02T01:45:16.771Z,101275.25
2023-06-02T01:47:43.482Z,101282.59
2023-06-02T01:50:10.579Z,101274.59
2023-06-02T01:52:37.372Z,101275.97
2023-06-02T01:55:05.133Z,101271.03
2023-06-02T01:57:33.913Z,101274.88
2023-06-02T02:00:00.994Z,101264.81
2023-06-02T02:02:27.923Z,101270.59
2023-06-02T02:04:54.945Z,101279.03
2023-06-02T02:07:21.774Z,101280.13
2023-06-02T02:09:48.527Z,101287.72
2023-06-02T02:12:15.317Z,101302.78
2023-06-02T02:14:42.471Z,101292.97
2023-06-02T02:17:11.199Z,101306.22
2023-06-02T02:19:38.455Z,101309.41
2023-06-02T02:22:05.682Z,101319.22
2023-06-02T02:24:32.466Z,101302.75
2023-06-02T02:26:59.231Z,101308.00
2023-06-02T02:29:26.007Z,101313.41
2023-06-02T02:31:52.950Z,101299.00
2023-06-02T02:34:21.065Z,101318.63
2023-06-02T02:36:49.679Z,101312.28
2023-06-02T02:39:17.100Z,101334.16
2023-06-02T02:41:43.888Z,101306.06
2023-06-02T02:44:10.774Z,101323.22
2023-06-02T02:46:37.691Z,101319.75
2023-06-02T02:49:04.514Z,101321.13
2023-06-02T02:51:31.399Z,101343.94
2023-06-02T02:53:58.236Z,101336.47
2023-06-02T02:56:25.123Z,101323.47
2023-06-02T02:58:51.985Z,101333.44
2023-06-02T03:01:18.888Z,101342.13
2023-06-02T03:03:45.971Z,101333.59
2023-06-02T03:06:19.433Z,101346.44
2023-06-02T03:08:49.338Z,101351.69
2023-06-02T03:11:16.268Z,101365.25
2023-06-02T03:13:43.051Z,101354.31
2023-06-02T03:16:09.854Z,101342.94
2023-06-02T03:18:36.687Z,101377.63
2023-06-02T03:21:06.470Z,101327.84
2023-06-02T03:23:33.301Z,101361.88
2023-06-02T03:26:04.271Z,101349.63
2023-06-02T03:28:31.264Z,101363.75
2023-06-02T03:30:58.109Z,101335.09
2023-06-02T03:33:24.860Z,101342.13
2023-06-02T03:35:51.767Z,101358.22
2023-06-02T03:38:18.598Z,101371.94
2023-06-02T03:40:45.544Z,101354.09
2023-06-02T03:43:12.328Z,101360.88
2023-06-02T03:45:39.131Z,101364.75
2023-06-02T03:48:06.268Z,101353.84
2023-06-02T03:50:33.211Z,101364.22
2023-06-02T03:53:00.077Z,101363.94
2023-06-02T03:55:27.042Z,101378.19
2023-06-02T03:57:53.839Z,101380.25
2023-06-02T04:00:20.647Z,101366.56
2023-06-02T04:02:47.460Z,101373.50
2023-06-02T04:05:15.681Z,101369.91
2023-06-02T04:07:42.594Z,101393.81
2023-06-02T04:10:09.967Z,101401.28
2023-06-02T04:12:36.824Z,101412.47
2023-06-02T04:15:04.977Z,101408.47
2023-06-02T04:17:31.946Z,101404.03
2023-06-02T04:19:58.761Z,101393.84
2023-06-02T04:22:25.531Z,101398.25
2023-06-02T04:24:52.337Z,101418.28
2023-06-02T04:27:19.556Z,101422.84
2023-06-02T04:29:47.081Z,101407.91
2023-06-02T04:32:14.017Z,101431.13
2023-06-02T04:34:41.077Z,101420.25
2023-06-02T04:37:08.661Z,101424.78
2023-06-02T04:39:36.574Z,101434.06
2023-06-02T04:42:04.637Z,101436.25
2023-06-02T04:44:31.529Z,101404.88
2023-06-02T04:46:58.504Z,101438.06
2023-06-02T04:49:25.780Z,101419.22
2023-06-02T04:51:52.706Z,101433.28
2023-06-02T04:54:19.615Z,101442.56
2023-06-02T04:56:46.635Z,101431.44
2023-06-02T04:59:13.470Z,101443.22
2023-06-02T05:01:40.841Z,101425.84
2023-06-02T05:04:07.800Z,101447.41
2023-06-02T05:06:34.689Z,101451.69
2023-06-02T05:09:04.535Z,101418.13
2023-06-02T05:11:31.840Z,101445.09
2023-06-02T05:13:58.837Z,101449.50
2023-06-02T05:16:25.822Z,101457.78
2023-06-02T05:18:52.791Z,101460.31
2023-06-02T05:21:19.791Z,101454.91
2023-06-02T05:23:46.705Z,101463.66
2023-06-02T05:26:13.885Z,101453.06
2023-06-02T05:28:41.705Z,101478.84
2023-06-02T05:31:08.655Z,101483.22
2023-06-02T05:33:35.802Z,101476.25
2023-06-02T05:36:02.800Z,101470.06
2023-06-02T05:38:29.709Z,101465.63
2023-06-02T05:40:56.522Z,101496.31
2023-06-02T05:43:23.438Z,101473.66
2023-06-02T05:45:50.431Z,101493.47
2023-06-02T05:48:17.528Z,101469.44
2023-06-02T05:50:44.550Z,101469.13
2023-06-02T05:53:11.358Z,101494.34
2023-06-02T05:55:38.985Z,101496.84
2023-06-02T05:58:05.920Z,101482.91
2023-06-02T06:00:33.055Z,101508.19
2023-06-02T06:02:59.959Z,101503.38
2023-06-02T06:05:27.067Z,101490.84
2023-06-02T06:07:53.921Z,101493.78
2023-06-02T06:10:20.966Z,101491.16
2023-06-02T06:12:47.785Z,101506.38
2023-06-02T06:15:14.721Z,101501.31
2023-06-02T06:17:52.651Z,101515.78
2023-06-02T06:20:20.488Z,101503.22
2023-06-02T06:22:47.451Z,101492.31
2023-06-02T06:25:14.316Z,101523.44
2023-06-02T06:27:41.104Z,101506.81
2023-06-02T06:30:08.417Z,101522.78
2023-06-02T06:32:35.288Z,101509.97
2023-06-02T06:35:02.176Z,101530.88
2023-06-02T06:37:48.065Z,101532.81
2023-06-02T06:40:29.950Z,101511.84
2023-06-02T06:53:49.619Z,101564.91
2023-06-02T06:56:16.470Z,101559.63
2023-06-02T06:58:43.401Z,101554.47
2023-06-02T07:01:10.291Z,101567.78
2023-06-02T07:03:37.316Z,101585.88
2023-06-02T07:06:04.902Z,101561.81
2023-06-02T07:08:32.065Z,101574.75
2023-06-02T07:10:59.110Z,101579.13
2023-06-02T07:13:26.925Z,101587.09
2023-06-02T07:15:53.706Z,101595.09
2023-06-02T07:18:22.486Z,101595.66
2023-06-02T07:20:49.396Z,101585.22
2023-06-02T07:23:16.818Z,101578.69
2023-06-02T07:25:44.070Z,101595.47
2023-06-02T07:28:10.925Z,101591.84
2023-06-02T07:30:37.848Z,101605.66
2023-06-02T07:33:04.792Z,101610.03
2023-06-02T07:35:31.861Z,101596.25
2023-06-02T07:37:58.651Z,101593.69
2023-06-02T07:40:25.829Z,101618.81
2023-06-02T07:42:52.723Z,101620.41
2023-06-02T07:45:19.618Z,101608.13
2023-06-02T07:47:46.977Z,101598.75
2023-06-02T07:50:13.863Z,101632.13
2023-06-02T07:52:40.651Z,101626.28
2023-06-02T07:55:07.936Z,101615.97
2023-06-02T07:57:34.822Z,101617.38
2023-06-02T08:00:19.398Z,101632.88
2023-06-02T08:02:48.486Z,101624.25
2023-06-02T08:05:16.385Z,101624.06
2023-06-02T08:07:43.803Z,101652.50
2023-06-02T08:10:10.988Z,101650.31
2023-06-02T08:12:37.993Z,101662.78
2023-06-02T08:15:05.395Z,101674.66
2023-06-02T08:17:32.286Z,101656.31
2023-06-02T08:20:02.456Z,101650.88
2023-06-02T08:22:30.242Z,101643.34
2023-06-02T08:24:58.156Z,101659.19
2023-06-02T08:27:25.196Z,101651.66
2023-06-02T08:29:52.430Z,101675.16
2023-06-02T08:32:19.974Z,101662.66
2023-06-02T08:34:48.476Z,101670.78
2023-06-02T08:37:18.731Z,101663.53
2023-06-02T08:39:46.339Z,101673.78
2023-06-02T08:42:13.354Z,101685.94
2023-06-02T08:44:41.980Z,101679.56
2023-06-02T08:47:11.397Z,101667.75
2023-06-02T08:49:48.102Z,101691.38
2023-06-02T08:52:24.928Z,101668.63
2023-06-02T08:54:51.845Z,101690.94
2023-06-02T08:57:23.759Z,101694.72
2023-06-02T08:59:50.732Z,101692.25
2023-06-02T09:02:17.877Z,101696.72
2023-06-02T09:04:44.646Z,101705.22
2023-06-02T09:07:14.405Z,101708.16
2023-06-02T09:09:42.403Z,101706.63
2023-06-02T09:12:09.719Z,101697.81
2023-06-02T09:14:36.982Z,101698.13
2023-06-02T09:17:04.090Z,101726.00
2023-06-02T09:19:53.501Z,101740.34
2023-06-02T09:22:20.179Z,101724.03
2023-06-02T09:24:46.888Z,101730.22
2023-06-02T09:27:14.255Z,101733.50
2023-06-02T09:29:41.336Z,101741.00
2023-06-02T09:32:15.754Z,101741.03
2023-06-02T09:34:42.855Z,101751.00
2023-06-02T09:37:16.377Z,101752.16
2023-06-02T09:39:44.813Z,101739.81
2023-06-02T09:42:16.892Z,101733.13
2023-06-02T09:45:05.684Z,101752.88
2023-06-02T09:47:42.465Z,101737.63
2023-06-02T09:50:10.451Z,101729.00
2023-06-02T09:52:38.437Z,101748.34
2023-06-02T09:55:05.984Z,101751.09
2023-06-02T09:57:32.746Z,101754.31
2023-06-02T10:00:00.160Z,101742.22
2023-06-02T10:02:27.593Z,101744.94
2023-06-02T10:04:54.386Z,101714.72
2023-06-02T10:07:42.535Z,101775.22
2023-06-02T10:10:30.908Z,101767.63
2023-06-02T10:13:16.388Z,101795.41
2023-06-02T10:16:04.584Z,101793.81
2023-06-02T10:19:08.622Z,101782.22
2023-06-02T10:21:41.568Z,101794.09
2023-06-02T10:24:18.718Z,101793.56
2023-06-02T10:26:56.733Z,101784.63
2023-06-02T10:29:25.650Z,101775.31
2023-06-02T10:31:52.439Z,101776.63
2023-06-02T10:34:38.883Z,101779.88
2023-06-02T10:37:05.813Z,101788.19
2023-06-02T10:39:54.273Z,101789.59
2023-06-02T10:42:25.816Z,101782.63
2023-06-02T10:44:56.033Z,101787.66
2023-06-02T10:47:22.734Z,101798.34
2023-06-02T10:49:59.764Z,101787.31
2023-06-02T10:52:27.037Z,101801.19
2023-06-02T10:55:12.369Z,101806.97
2023-06-02T10:57:52.234Z,101807.63
2023-06-02T11:00:34.379Z,101806.38
2023-06-02T11:03:01.581Z,101800.81
2023-06-02T11:05:29.450Z,101794.00
2023-06-02T11:08:23.052Z,101816.81
2023-06-02T11:10:58.510Z,101784.06
2023-06-02T11:13:26.102Z,101789.81
2023-06-02T11:15:59.350Z,101825.84
2023-06-02T11:18:34.844Z,101836.53
2023-06-02T11:21:04.638Z,101812.81
2023-06-02T11:23:31.911Z,101802.72
2023-06-02T11:26:01.983Z,101833.31
2023-06-02T11:28:29.130Z,101823.66
2023-06-02T11:31:23.555Z,101826.19
2023-06-02T11:33:52.148Z,101832.78
2023-06-02T11:36:29.427Z,101820.25
2023-06-02T11:39:06.237Z,101823.16
2023-06-02T11:41:33.399Z,101831.94
2023-06-02T11:44:07.806Z,101824.28
2023-06-02T11:46:34.634Z,101822.22
2023-06-02T11:49:02.301Z,101835.00
2023-06-02T11:51:29.201Z,101833.06
2023-06-02T11:54:08.191Z,101836.50
2023-06-02T11:56:36.525Z,101831.56
2023-06-02T11:59:03.455Z,101831.50
2023-06-02T12:01:33.436Z,101843.09
2023-06-02T12:04:12.873Z,101842.75
2023-06-02T12:06:46.814Z,101835.69
2023-06-02T12:09:14.850Z,101811.47
2023-06-02T12:11:41.806Z,101828.38
2023-06-02T12:14:09.343Z,101831.31
2023-06-02T12:16:39.034Z,101830.22
2023-06-02T12:19:22.590Z,101832.16
2023-06-02T12:21:53.377Z,101836.06
2023-06-02T12:24:35.224Z,101841.03
2023-06-02T12:27:02.062Z,101833.88
2023-06-02T12:29:28.851Z,101839.13
2023-06-02T12:31:58.945Z,101864.91
2023-06-02T12:34:26.006Z,101843.22
2023-06-02T12:36:52.889Z,101842.16
2023-06-02T12:39:19.866Z,101858.50
2023-06-02T12:41:46.608Z,101827.28
2023-06-02T12:44:13.384Z,101844.19
2023-06-02T12:46:41.229Z,101860.63
2023-06-02T12:49:10.346Z,101861.41
2023-06-02T12:51:37.430Z,101855.69
2023-06-02T12:54:04.257Z,101823.19
2023-06-02T12:56:33.079Z,101847.66
2023-06-02T12:59:01.680Z,101850.75
2023-06-02T13:01:28.696Z,101843.19
2023-06-02T13:03:57.265Z,101841.31
2023-06-02T13:06:25.312Z,101845.94
2023-06-02T13:08:52.421Z,101845.41
2023-06-02T13:11:19.377Z,101850.66
2023-06-02T13:13:47.029Z,101871.13
2023-06-02T13:16:13.824Z,101860.03
2023-06-02T13:18:43.297Z,101872.19
2023-06-02T13:21:10.174Z,101878.66
2023-06-02T13:23:37.295Z,101878.28
2023-06-02T13:26:04.711Z,101866.75
2023-06-02T13:28:31.991Z,101882.75
2023-06-02T13:30:59.658Z,101880.63
2023-06-02T13:33:26.929Z,101862.81
2023-06-02T13:35:53.682Z,101894.63
2023-06-02T13:38:20.567Z,101884.59
2023-06-02T13:40:47.811Z,101892.66
2023-06-02T13:43:14.609Z,101883.75
2023-06-02T13:45:41.351Z,101919.53
2023-06-02T13:48:09.603Z,101899.47
2023-06-02T13:50:36.527Z,101901.94
2023-06-02T13:53:03.574Z,101909.88
2023-06-02T13:55:31.419Z,101903.03
2023-06-02T13:57:58.373Z,101907.56
2023-06-02T14:00:25.162Z,101914.22
2023-06-02T14:02:52.545Z,101906.91
2023-06-02T14:05:19.505Z,101917.44
2023-06-02T14:07:46.279Z,101913.16
2023-06-02T14:10:13.005Z,101907.34
2023-06-02T14:12:39.757Z,101910.72
2023-06-02T14:15:07.102Z,101904.88
2023-06-02T14:17:33.898Z,101899.59
2023-06-02T14:20:00.885Z,101894.75
2023-06-02T14:22:27.703Z,101904.06
2023-06-02T14:24:54.444Z,101890.59
2023-06-02T14:27:21.187Z,101908.47
2023-06-02T14:29:48.097Z,101907.19
2023-06-02T14:32:14.883Z,101904.28
2023-06-02T14:34:41.622Z,101903.22
2023-06-02T14:37:09.410Z,101910.38
2023-06-02T14:39:37.041Z,101889.00
2023-06-02T14:42:03.874Z,101904.09
2023-06-02T14:44:30.774Z,101901.88
2023-06-02T14:46:57.527Z,101906.16
2023-06-02T14:49:24.512Z,101887.31
2023-06-02T14:51:51.349Z,101890.78
2023-06-02T14:54:18.131Z,101903.03
2023-06-02T14:56:44.852Z,101890.53
2023-06-02T14:59:12.357Z,101905.72
2023-06-02T15:01:39.221Z,101914.44
2023-06-02T15:04:06.327Z,101931.50
2023-06-02T15:06:33.120Z,101928.00
2023-06-02T15:09:00.160Z,101927.50
2023-06-02T15:11:28.226Z,101941.75
2023-06-02T15:13:55.607Z,101938.09
2023-06-02T15:16:22.517Z,101928.19
2023-06-02T15:18:53.305Z,101947.41
2023-06-02T15:21:21.866Z,101914.72
2023-06-02T15:23:48.791Z,101933.97
2023-06-02T15:26:16.225Z,101954.09
2023-06-02T15:28:44.024Z,101937.81
2023-06-02T15:31:11.122Z,101942.94
2023-06-02T15:33:38.188Z,101963.13
2023-06-02T15:36:05.497Z,101962.06
2023-06-02T15:38:32.525Z,101955.63
2023-06-02T15:40:59.302Z,101964.69
2023-06-02T15:43:26.144Z,101965.19
2023-06-02T15:45:52.947Z,101950.34
2023-06-02T15:48:19.809Z,101947.88
2023-06-02T15:50:46.586Z,101957.91
2023-06-02T15:53:13.376Z,101974.47
2023-06-02T15:55:40.396Z,101976.47
2023-06-02T15:58:07.259Z,101971.47
2023-06-02T16:00:34.125Z,101969.91
2023-06-02T16:03:02.298Z,101961.88
2023-06-02T16:05:29.118Z,101985.63
2023-06-02T16:07:57.026Z,101981.28
2023-06-02T16:10:23.781Z,101968.22
2023-06-02T16:12:52.518Z,101971.16
2023-06-02T16:15:19.367Z,101977.81
2023-06-02T16:17:46.256Z,101977.59
2023-06-02T16:20:13.150Z,101981.69
2023-06-02T16:22:39.914Z,101981.31
2023-06-02T16:25:07.972Z,101980.03
2023-06-02T16:27:36.263Z,101975.34
2023-06-02T16:30:04.659Z,101983.75
2023-06-02T16:32:31.755Z,102000.13
2023-06-02T16:34:58.770Z,101996.84
2023-06-02T16:37:25.462Z,102003.31
2023-06-02T16:39:52.205Z,101994.63
2023-06-02T16:42:18.915Z,101991.69
2023-06-02T16:44:45.776Z,102007.28
2023-06-02T16:47:12.618Z,102015.59
2023-06-02T16:49:39.971Z,102004.31
2023-06-02T16:52:07.423Z,102006.88
2023-06-02T16:54:34.992Z,102012.75
2023-06-02T16:57:01.805Z,102006.25
2023-06-02T16:59:28.656Z,101998.97
2023-06-02T17:01:55.478Z,102006.44
2023-06-02T17:04:22.404Z,102019.13
2023-06-02T17:06:49.300Z,102014.88
2023-06-02T17:09:17.436Z,102019.06
2023-06-02T17:11:44.342Z,102013.69
2023-06-02T17:14:11.115Z,102023.56
2023-06-02T17:16:38.027Z,102012.06
2023-06-02T17:19:07.758Z,102025.38
2023-06-02T17:21:34.747Z,102031.94
2023-06-02T17:24:01.596Z,102022.19
2023-06-02T17:26:28.397Z,102038.59
2023-06-02T17:28:55.727Z,102040.28
2023-06-02T17:31:22.826Z,102049.03
2023-06-02T17:33:49.608Z,102022.81
2023-06-02T17:36:16.415Z,102022.00
2023-06-02T17:38:43.221Z,102021.84
2023-06-02T17:41:11.204Z,102031.56
2023-06-02T17:43:38.159Z,102038.09
2023-06-02T17:46:04.997Z,102021.44
2023-06-02T17:48:31.747Z,102032.25
2023-06-02T17:50:58.532Z,102029.91
2023-06-02T17:53:25.270Z,102024.22
2023-06-02T17:55:52.253Z,102044.09
2023-06-02T17:58:19.217Z,102039.94
2023-06-02T18:00:46.200Z,102032.16
2023-06-02T18:03:13.244Z,102032.91
2023-06-02T18:05:40.149Z,102047.31
2023-06-02T18:08:07.000Z,102040.44
2023-06-02T18:10:34.109Z,102039.81
2023-06-02T18:13:03.624Z,102044.09
2023-06-02T18:15:30.755Z,102046.09
2023-06-02T18:17:57.720Z,102048.56
2023-06-02T18:20:24.657Z,102061.56
2023-06-02T18:22:51.558Z,102066.16
2023-06-02T18:25:18.315Z,102054.66
2023-06-02T18:27:45.104Z,102064.69
2023-06-02T18:30:12.162Z,102060.31
2023-06-02T18:32:38.937Z,102055.00
2023-06-02T18:35:06.174Z,102065.63
2023-06-02T18:37:32.984Z,102072.47
2023-06-02T18:39:59.743Z,102060.69
2023-06-02T18:42:26.464Z,102069.66
2023-06-02T18:44:53.246Z,102073.88
2023-06-02T18:47:21.246Z,102057.66
2023-06-02T18:49:48.101Z,102074.50
2023-06-02T18:52:14.817Z,102077.03
2023-06-02T18:54:43.054Z,102064.00
2023-06-02T18:57:10.729Z,102068.44
2023-06-02T18:59:37.562Z,102075.59
2023-06-02T19:02:04.873Z,102041.94
2023-06-02T19:04:33.235Z,102077.25
2023-06-02T19:07:01.173Z,102079.63
2023-06-02T19:09:28.043Z,102083.31
2023-06-02T19:11:54.897Z,102090.22
2023-06-02T19:14:21.789Z,102088.13
2023-06-02T19:16:48.658Z,102085.25
2023-06-02T19:19:15.498Z,102067.34
2023-06-02T19:21:42.358Z,102093.81
2023-06-02T19:24:09.258Z,102077.44
2023-06-02T19:26:36.066Z,102081.47
2023-06-02T19:29:02.990Z,102088.09
2023-06-02T19:31:29.807Z,102097.97
2023-06-02T19:33:56.673Z,102097.81
2023-06-02T19:36:23.393Z,102088.75
2023-06-02T19:38:50.357Z,102068.50
2023-06-02T19:41:17.105Z,102089.88
2023-06-02T19:43:43.844Z,102098.88
2023-06-02T19:46:10.933Z,102105.91
2023-06-02T19:48:38.299Z,102114.59
2023-06-02T19:51:05.192Z,102102.06
2023-06-02T19:53:32.000Z,102084.50
2023-06-02T19:55:58.768Z,102114.41
2023-06-02T19:58:25.555Z,102123.63
2023-06-02T20:00:52.410Z,102121.56
2023-06-02T20:03:19.277Z,102116.22
2023-06-02T20:05:46.096Z,102121.47
2023-06-02T20:08:12.898Z,102116.56
2023-06-02T20:10:39.633Z,102133.09
2023-06-02T20:13:06.501Z,102119.91
2023-06-02T20:15:33.345Z,102124.91
2023-06-02T20:18:00.072Z,102123.16
2023-06-02T20:20:26.956Z,102134.66
2023-06-02T20:22:54.752Z,102134.44
2023-06-02T20:25:21.638Z,102117.31
2023-06-02T20:27:48.416Z,102143.91
2023-06-02T20:30:15.398Z,102137.41
2023-06-02T20:32:42.268Z,102138.03
2023-06-02T20:35:09.671Z,102134.25
2023-06-02T20:37:38.355Z,102131.38
2023-06-02T20:40:06.629Z,102141.84
2023-06-02T20:42:33.441Z,102151.03
2023-06-02T20:45:00.190Z,102139.78
2023-06-02T20:47:26.910Z,102138.50
2023-06-02T20:49:53.696Z,102144.13
2023-06-02T20:52:20.617Z,102143.56
2023-06-02T20:54:47.428Z,102144.59
2023-06-02T20:57:14.347Z,102143.97
2023-06-02T20:59:41.089Z,102153.28
2023-06-02T21:02:07.810Z,102138.56
2023-06-02T21:04:34.566Z,102148.09
2023-06-02T21:07:01.288Z,102151.63
2023-06-02T21:09:28.225Z,102150.06
2023-06-02T21:11:55.369Z,102160.78
2023-06-02T21:14:22.135Z,102151.94
2023-06-02T21:16:48.904Z,102160.41
2023-06-02T21:19:15.641Z,102145.53
2023-06-02T21:21:42.404Z,102154.00
2023-06-02T21:24:09.410Z,102143.28
2023-06-02T21:26:36.273Z,102140.00
2023-06-02T21:29:03.445Z,102147.19
2023-06-02T21:31:30.237Z,102153.31
2023-06-02T21:33:56.908Z,102151.47
2023-06-02T21:36:23.720Z,102156.97
2023-06-02T21:38:50.528Z,102136.19
2023-06-02T21:41:17.285Z,102161.38
2023-06-02T21:43:44.121Z,102154.09
2023-06-02T21:46:11.000Z,102151.84
2023-06-02T21:48:37.893Z,102155.09
2023-06-02T21:51:05.146Z,102160.25
2023-06-02T21:53:32.110Z,102163.69
2023-06-02T21:55:58.830Z,102162.19
2023-06-02T21:58:25.632Z,102147.91
2023-06-02T22:00:52.440Z,102159.94
2023-06-02T22:03:19.353Z,102163.22
2023-06-02T22:05:46.294Z,102160.69
2023-06-02T22:08:13.066Z,102131.78
2023-06-02T22:10:40.094Z,102159.47
2023-06-02T22:13:06.943Z,102160.41
2023-06-02T22:15:33.683Z,102149.31
2023-06-02T22:18:00.440Z,102118.44
2023-06-02T22:20:27.354Z,102154.44
2023-06-02T22:22:54.118Z,102144.81
2023-06-02T22:25:21.045Z,102151.81
2023-06-02T22:27:47.788Z,102125.59
2023-06-02T22:30:16.224Z,102151.97
2023-06-02T22:32:43.010Z,102155.53
2023-06-02T22:35:10.015Z,102164.34
2023-06-02T22:37:37.132Z,102163.25
2023-06-02T22:40:04.093Z,102161.69
2023-06-02T22:42:30.829Z,102157.66
2023-06-02T22:44:58.927Z,102158.75
2023-06-02T22:47:26.330Z,102174.97
2023-06-02T22:49:53.124Z,102153.22
2023-06-02T22:52:19.900Z,102176.06
2023-06-02T22:54:46.625Z,102170.31
2023-06-02T22:57:13.506Z,102171.47
2023-06-02T22:59:40.212Z,102171.81
2023-06-02T23:02:07.188Z,102183.84
2023-06-02T23:04:33.972Z,102175.81
2023-06-02T23:07:00.807Z,102188.31
2023-06-02T23:09:27.547Z,102184.28
2023-06-02T23:11:54.365Z,102172.59
2023-06-02T23:14:21.077Z,102174.91
2023-06-02T23:16:48.582Z,102194.13
2023-06-02T23:19:15.621Z,102178.53
2023-06-02T23:21:42.448Z,102188.63
2023-06-02T23:24:09.246Z,102197.16
2023-06-02T23:26:36.233Z,102187.28
2023-06-02T23:29:03.019Z,102185.81
2023-06-02T23:31:30.361Z,102195.25
2023-06-02T23:33:57.215Z,102196.41
2023-06-02T23:36:23.967Z,102202.28
2023-06-02T23:38:50.766Z,102202.38
2023-06-02T23:41:17.538Z,102202.38
2023-06-02T23:43:44.274Z,102200.94
2023-06-02T23:46:11.068Z,102219.56
2023-06-02T23:48:37.931Z,102205.41
2023-06-02T23:51:04.943Z,102211.09
2023-06-02T23:53:34.898Z,102213.69
2023-06-02T23:56:01.674Z,102202.97
2023-06-02T23:58:28.536Z,102206.66
